Time;durP1;ratioP1;P1;durP2;ratioP2;P2;SDS_P1;SDS_P2;PMS_P1;PMS_P2;Temp;Humidity;BMP_temperature;BMP_pressure;BME280_temperature;BME280_humidity;BME280_pressure;Samples;Min_cycle;Max_cycle;Signal;HPM_P1;HPM_P2
2022/10/11 00:03:14;;;;;;;1.83;0.80;;;;;;;;;;10456382;28;20337;-69
2022/10/11 00:08:15;;;;;;;3.72;0.70;;;;;;;;;;10459857;28;20744;-69
2022/10/11 00:13:16;;;;;;;4.75;0.80;;;;;;;;;;10462476;28;20255;-69
2022/10/11 00:18:18;;;;;;;6.05;0.68;;;;;;;;;;10462414;28;20774;-69
2022/10/11 00:23:19;;;;;;;5.68;1.17;;;;;;;;;;10469816;28;20222;-69
2022/10/11 00:28:20;;;;;;;4.32;1.08;;;;;;;;;;10464192;28;20257;-69
2022/10/11 00:33:21;;;;;;;5.93;0.82;;;;;;;;;;10470451;28;20242;-69
2022/10/11 00:38:22;;;;;;;1.30;0.52;;;;;;;;;;10466499;28;20686;-69
2022/10/11 00:43:26;;;;;;;2.25;0.98;;;;;;;;;;10462421;28;20595;-69
2022/10/11 00:48:27;;;;;;;4.57;1.13;;;;;;;;;;10446993;28;20222;-69
2022/10/11 00:53:29;;;;;;;8.65;1.15;;;;;;;;;;10467709;28;20226;-69
2022/10/11 00:58:30;;;;;;;6.13;0.90;;;;;;;;;;10465567;28;20720;-69
2022/10/11 01:03:32;;;;;;;1.98;0.73;;;;;;;;;;10463918;28;20685;-69
2022/10/11 01:08:33;;;;;;;2.70;1.60;;;;;;;;;;10466694;28;20273;-68
2022/10/11 01:13:49;;;;;;;7.10;1.08;;;;;;;;;;10465173;28;20309;-69
2022/10/11 01:18:53;;;;;;;1.50;0.70;;;;;;;;;;10463637;28;20230;-69
2022/10/11 01:24:13;;;;;;;5.78;0.80;;;;;;;;;;10467777;28;20296;-69
2022/10/11 01:29:33;;;;;;;0.88;0.77;;;;;;;;;;10466817;28;20752;-69
2022/10/11 01:34:57;;;;;;;1.40;0.70;;;;;;;;;;10461144;28;20279;-69
2022/10/11 01:40:00;;;;;;;2.33;0.65;;;;;;;;;;10453774;28;20230;-69
2022/10/11 01:45:02;;;;;;;8.23;0.90;;;;;;;;;;10462455;28;20229;-69
2022/10/11 01:50:03;;;;;;;0.90;0.80;;;;;;;;;;10462411;28;20690;-69
2022/10/11 01:55:10;;;;;;;1.35;0.95;;;;;;;;;;10461169;28;21423;-69
2022/10/11 02:00:14;;;;;;;3.72;1.02;;;;;;;;;;10457221;28;20226;-69
2022/10/11 02:05:35;;;;;;;2.83;1.00;;;;;;;;;;10459330;28;20562;-69
2022/10/11 02:10:44;;;;;;;4.28;0.95;;;;;;;;;;10467259;28;20218;-68
2022/10/11 02:15:47;;;;;;;1.73;1.00;;;;;;;;;;10462256;28;20214;-68
2022/10/11 02:20:48;;;;;;;3.42;1.33;;;;;;;;;;10463681;28;20239;-69
2022/10/11 02:25:50;;;;;;;3.78;1.17;;;;;;;;;;10459465;28;20912;-69
2022/10/11 02:30:52;;;;;;;6.32;1.33;;;;;;;;;;10462349;28;20218;-69
2022/10/11 02:35:56;;;;;;;3.35;1.45;;;;;;;;;;10462875;28;20782;-69
2022/10/11 02:41:01;;;;;;;3.10;1.42;;;;;;;;;;10459795;28;20225;-69
2022/10/11 02:46:03;;;;;;;3.90;1.73;;;;;;;;;;10459701;28;20279;-69
2022/10/11 02:51:04;;;;;;;4.20;1.02;;;;;;;;;;10461365;28;20219;-69
2022/10/11 02:56:05;;;;;;;6.82;1.30;;;;;;;;;;10460972;28;20213;-69
2022/10/11 03:01:06;;;;;;;3.42;1.30;;;;;;;;;;10456781;28;20234;-69
2022/10/11 03:06:08;;;;;;;6.57;1.45;;;;;;;;;;10459433;28;20210;-69
2022/10/11 03:11:09;;;;;;;3.75;1.75;;;;;;;;;;10459521;28;20222;-69
2022/10/11 03:16:10;;;;;;;2.08;1.42;;;;;;;;;;10459930;28;20215;-69
2022/10/11 03:21:11;;;;;;;4.43;1.50;;;;;;;;;;10465089;28;20233;-69
2022/10/11 03:26:12;;;;;;;2.15;1.63;;;;;;;;;;10463072;28;20214;-69
2022/10/11 03:31:13;;;;;;;1.60;1.08;;;;;;;;;;10462989;28;20273;-70
2022/10/11 03:36:15;;;;;;;1.30;1.20;;;;;;;;;;10460875;28;20248;-69
2022/10/11 03:41:16;;;;;;;2.78;0.80;;;;;;;;;;10460750;28;20229;-69
2022/10/11 03:46:17;;;;;;;2.95;1.42;;;;;;;;;;10471379;28;20709;-69
2022/10/11 03:51:18;;;;;;;4.35;1.52;;;;;;;;;;10461151;28;20218;-69
2022/10/11 03:56:19;;;;;;;1.52;1.17;;;;;;;;;;10469775;28;20225;-69
2022/10/11 04:01:20;;;;;;;4.53;1.15;;;;;;;;;;10469988;28;20237;-70
2022/10/11 04:06:22;;;;;;;8.60;1.00;;;;;;;;;;10467702;28;20326;-70
2022/10/11 04:11:23;;;;;;;1.75;0.73;;;;;;;;;;10464533;28;20249;-69
2022/10/11 04:16:24;;;;;;;2.47;1.15;;;;;;;;;;10468614;28;20215;-69
2022/10/11 04:21:25;;;;;;;1.25;0.90;;;;;;;;;;10465036;28;20235;-69
2022/10/11 04:26:26;;;;;;;2.95;1.05;;;;;;;;;;10467795;28;20222;-69
2022/10/11 04:31:27;;;;;;;3.85;0.98;;;;;;;;;;10464677;28;20214;-70
2022/10/11 04:36:31;;;;;;;0.68;0.55;;;;;;;;;;10464240;28;20220;-69
2022/10/11 04:41:33;;;;;;;7.82;1.13;;;;;;;;;;10458324;28;20226;-70
2022/10/11 04:46:34;;;;;;;2.53;0.73;;;;;;;;;;10419837;28;20219;-70
2022/10/11 04:51:35;;;;;;;6.65;0.60;;;;;;;;;;10420669;28;20229;-70
2022/10/11 04:56:36;;;;;;;8.60;1.13;;;;;;;;;;10424199;28;20219;-70
2022/10/11 05:01:37;;;;;;;2.92;0.70;;;;;;;;;;10420139;28;20269;-70
2022/10/11 05:06:38;;;;;;;3.92;0.68;;;;;;;;;;10420174;28;20239;-70
2022/10/11 05:11:39;;;;;;;3.33;0.80;;;;;;;;;;10417760;28;20222;-70
2022/10/11 05:16:40;;;;;;;3.47;0.80;;;;;;;;;;10408616;28;20269;-70
2022/10/11 05:21:41;;;;;;;1.10;0.32;;;;;;;;;;10423774;28;20226;-70
2022/10/11 05:26:43;;;;;;;2.38;0.70;;;;;;;;;;10421555;28;20219;-70
2022/10/11 05:31:44;;;;;;;1.63;0.60;;;;;;;;;;10400473;28;20629;-69
2022/10/11 05:36:45;;;;;;;8.90;0.63;;;;;;;;;;10420875;28;20235;-70
2022/10/11 05:41:46;;;;;;;4.03;0.90;;;;;;;;;;10431434;28;20254;-70
2022/10/11 05:46:47;;;;;;;2.38;0.40;;;;;;;;;;10462627;28;20222;-70
2022/10/11 05:51:48;;;;;;;1.88;0.82;;;;;;;;;;10460567;28;20594;-70
2022/10/11 05:56:49;;;;;;;1.85;0.60;;;;;;;;;;10463409;28;20583;-70
2022/10/11 06:01:50;;;;;;;0.60;0.60;;;;;;;;;;10464537;28;20589;-69
2022/10/11 06:06:51;;;;;;;3.72;0.77;;;;;;;;;;10463596;28;20215;-69
2022/10/11 06:11:52;;;;;;;8.18;1.25;;;;;;;;;;10461533;28;20230;-69
2022/10/11 06:16:54;;;;;;;2.88;0.93;;;;;;;;;;10453909;28;20633;-69
2022/10/11 06:21:55;;;;;;;0.60;0.60;;;;;;;;;;10456968;28;20613;-69
2022/10/11 06:26:56;;;;;;;6.65;0.95;;;;;;;;;;10457403;28;20226;-69
2022/10/11 06:31:57;;;;;;;3.78;0.60;;;;;;;;;;10457258;28;20232;-69
2022/10/11 06:37:19;;;;;;;3.30;0.75;;;;;;;;;;10458443;28;20287;-68
2022/10/11 06:42:20;;;;;;;0.80;0.80;;;;;;;;;;10457831;28;20248;-69
2022/10/11 06:47:22;;;;;;;0.90;0.90;;;;;;;;;;10455885;28;20972;-69
2022/10/11 06:52:23;;;;;;;2.60;0.88;;;;;;;;;;10456395;28;20819;-70
2022/10/11 06:57:24;;;;;;;0.40;0.32;;;;;;;;;;10457078;28;20242;-68
2022/10/11 07:02:25;;;;;;;3.50;0.50;;;;;;;;;;10460253;28;20243;-69
2022/10/11 07:07:27;;;;;;;3.92;0.73;;;;;;;;;;10467171;28;20709;-69
2022/10/11 07:12:28;;;;;;;6.65;0.55;;;;;;;;;;10456401;28;20230;-69
2022/10/11 07:17:29;;;;;;;2.58;0.68;;;;;;;;;;10461072;28;20222;-69
2022/10/11 07:22:30;;;;;;;8.43;1.30;;;;;;;;;;10461801;28;20230;-69
2022/10/11 07:27:31;;;;;;;0.82;0.57;;;;;;;;;;10458688;28;21152;-69
2022/10/11 07:32:32;;;;;;;8.48;0.95;;;;;;;;;;10454746;28;20225;-69
2022/10/11 07:37:33;;;;;;;6.43;1.02;;;;;;;;;;10455677;28;20216;-70
2022/10/11 07:42:34;;;;;;;2.47;0.57;;;;;;;;;;10459707;28;20669;-69
2022/10/11 07:47:36;;;;;;;4.00;0.55;;;;;;;;;;10458271;28;20210;-70
2022/10/11 07:52:37;;;;;;;5.93;0.70;;;;;;;;;;10458924;28;20210;-70
2022/10/11 07:57:38;;;;;;;8.23;0.95;;;;;;;;;;10453811;28;20210;-70
2022/10/11 08:02:39;;;;;;;5.05;1.00;;;;;;;;;;10450905;28;20772;-70
2022/10/11 08:07:40;;;;;;;1.48;0.73;;;;;;;;;;10456505;28;20218;-70
2022/10/11 08:12:41;;;;;;;10.95;0.80;;;;;;;;;;10458797;28;20221;-70
2022/10/11 08:17:42;;;;;;;3.60;0.50;;;;;;;;;;10451191;28;20269;-69
2022/10/11 08:22:43;;;;;;;3.90;0.65;;;;;;;;;;10447146;28;20728;-70
2022/10/11 08:27:45;;;;;;;1.85;0.52;;;;;;;;;;10457646;28;21212;-70
2022/10/11 08:32:46;;;;;;;5.15;1.05;;;;;;;;;;10453099;28;20224;-70
2022/10/11 08:37:47;;;;;;;6.70;0.82;;;;;;;;;;10452667;28;20253;-70
2022/10/11 08:43:11;;;;;;;4.20;0.90;;;;;;;;;;10457899;28;20238;-71
2022/10/11 08:48:16;;;;;;;1.98;0.77;;;;;;;;;;10461484;28;20218;-69
2022/10/11 08:53:33;;;;;;;7.72;1.38;;;;;;;;;;10460194;28;20222;-70
2022/10/11 08:58:45;;;;;;;3.25;0.45;;;;;;;;;;10460944;28;20232;-70
2022/10/11 09:03:46;;;;;;;4.40;0.60;;;;;;;;;;10458629;28;20226;-70
2022/10/11 09:08:47;;;;;;;4.82;0.60;;;;;;;;;;10463478;28;20237;-70
2022/10/11 09:13:55;;;;;;;4.97;0.70;;;;;;;;;;10465425;28;20222;-70
2022/10/11 09:19:02;;;;;;;1.75;0.50;;;;;;;;;;10462448;28;20238;-70
2022/10/11 09:24:21;;;;;;;3.97;0.60;;;;;;;;;;10462678;28;20689;-69
2022/10/11 09:29:22;;;;;;;5.50;0.68;;;;;;;;;;10461411;28;21021;-70
2022/10/11 09:34:26;;;;;;;3.20;0.68;;;;;;;;;;10458588;28;20353;-70
2022/10/11 09:39:29;;;;;;;3.00;0.73;;;;;;;;;;10455562;28;20232;-71
2022/10/11 09:44:35;;;;;;;3.58;0.93;;;;;;;;;;10457053;28;20231;-70
2022/10/11 09:49:38;;;;;;;2.75;0.60;;;;;;;;;;10454533;28;20221;-70
2022/10/11 09:54:40;;;;;;;5.53;0.52;;;;;;;;;;10454771;28;20210;-69
2022/10/11 09:59:42;;;;;;;5.55;0.60;;;;;;;;;;10460345;28;20210;-70
2022/10/11 10:04:59;;;;;;;4.88;0.60;;;;;;;;;;10458970;28;20218;-70
2022/10/11 10:10:19;;;;;;;2.53;0.40;;;;;;;;;;10457605;28;20221;-69
2022/10/11 10:15:20;;;;;;;4.47;0.43;;;;;;;;;;10452550;28;20677;-69
2022/10/11 10:20:23;;;;;;;6.53;0.95;;;;;;;;;;10453611;28;20881;-69
2022/10/11 10:25:31;;;;;;;3.55;0.30;;;;;;;;;;10457411;28;20187;-69
2022/10/11 10:30:32;;;;;;;3.35;0.40;;;;;;;;;;10452074;28;20792;-69
2022/10/11 10:35:54;;;;;;;4.65;0.45;;;;;;;;;;10454398;28;20220;-69
2022/10/11 10:40:57;;;;;;;2.55;0.80;;;;;;;;;;10452745;28;20230;-69
2022/10/11 10:46:10;;;;;;;4.25;0.70;;;;;;;;;;10450040;28;20526;-69
2022/10/11 10:51:23;;;;;;;5.78;0.45;;;;;;;;;;10456748;28;20791;-68
2022/10/11 10:56:31;;;;;;;3.03;0.43;;;;;;;;;;10456384;28;20702;-69
2022/10/11 11:01:33;;;;;;;4.60;0.40;;;;;;;;;;10452446;28;20218;-69
2022/10/11 11:06:34;;;;;;;3.88;0.70;;;;;;;;;;10451462;28;20213;-69
2022/10/11 11:11:44;;;;;;;1.75;0.20;;;;;;;;;;10451018;28;20712;-68
2022/10/11 11:16:53;;;;;;;3.25;0.82;;;;;;;;;;10452461;28;20215;-68
2022/10/11 11:22:09;;;;;;;5.45;0.50;;;;;;;;;;10437719;28;20223;-69
2022/10/11 11:27:30;;;;;;;1.02;0.20;;;;;;;;;;10452849;28;20206;-69
2022/10/11 11:32:39;;;;;;;2.92;0.38;;;;;;;;;;10451752;28;20279;-69
2022/10/11 11:37:42;;;;;;;1.38;0.30;;;;;;;;;;10455699;28;20305;-68
2022/10/11 11:42:46;;;;;;;0.95;0.60;;;;;;;;;;10456445;28;20792;-68
2022/10/11 11:47:51;;;;;;;2.10;0.30;;;;;;;;;;10448442;28;20744;-69
2022/10/11 11:52:52;;;;;;;0.40;0.40;;;;;;;;;;10448185;28;20624;-68
2022/10/11 11:57:59;;;;;;;3.35;0.22;;;;;;;;;;10448120;28;20728;-69
2022/10/11 12:03:09;;;;;;;0.63;0.30;;;;;;;;;;10453400;28;20310;-69
2022/10/11 12:08:27;;;;;;;3.92;0.40;;;;;;;;;;10453322;28;20233;-68
2022/10/11 12:13:35;;;;;;;4.57;0.50;;;;;;;;;;10451715;28;20275;-68
2022/10/11 12:18:54;;;;;;;2.90;0.55;;;;;;;;;;10462016;28;20213;-68
2022/10/11 12:23:57;;;;;;;2.28;0.40;;;;;;;;;;10464701;28;20229;-68
2022/10/11 12:29:20;;;;;;;2.22;0.28;;;;;;;;;;10461351;28;20215;-68
2022/10/11 12:34:40;;;;;;;2.20;0.50;;;;;;;;;;10459788;28;20209;-68
2022/10/11 12:39:44;;;;;;;1.02;0.40;;;;;;;;;;10461052;28;20214;-68
2022/10/11 12:45:05;;;;;;;6.20;0.50;;;;;;;;;;10463673;28;20300;-68
2022/10/11 12:50:12;;;;;;;5.57;0.57;;;;;;;;;;10454071;28;20280;-68
2022/10/11 12:55:33;;;;;;;0.60;0.43;;;;;;;;;;10462337;28;20191;-68
2022/10/11 13:00:44;;;;;;;2.95;0.40;;;;;;;;;;10458769;28;20289;-67
2022/10/11 13:05:46;;;;;;;4.32;0.40;;;;;;;;;;10449199;28;20215;-67
2022/10/11 13:10:47;;;;;;;1.58;0.50;;;;;;;;;;10462799;28;20284;-67
2022/10/11 13:15:50;;;;;;;0.45;0.20;;;;;;;;;;10460056;28;20634;-68
2022/10/11 13:20:51;;;;;;;1.38;0.22;;;;;;;;;;10463560;28;20226;-67
2022/10/11 13:25:53;;;;;;;3.08;0.50;;;;;;;;;;10461998;28;20217;-67
2022/10/11 13:30:56;;;;;;;2.28;0.40;;;;;;;;;;10456986;28;20210;-67
2022/10/11 13:35:58;;;;;;;2.55;0.30;;;;;;;;;;10455683;28;20728;-68
2022/10/11 13:41:00;;;;;;;5.07;1.08;;;;;;;;;;10456321;28;20264;-68
2022/10/11 13:46:03;;;;;;;3.83;0.30;;;;;;;;;;10458158;28;20217;-68
2022/10/11 13:51:11;;;;;;;3.85;0.35;;;;;;;;;;10456922;28;20717;-68
2022/10/11 13:56:18;;;;;;;0.30;0.22;;;;;;;;;;10455531;28;20240;-68
2022/10/11 14:01:21;;;;;;;2.38;0.20;;;;;;;;;;10454502;28;20227;-68
2022/10/11 14:06:23;;;;;;;2.72;0.30;;;;;;;;;;10460115;28;21115;-68
2022/10/11 14:11:38;;;;;;;3.03;0.80;;;;;;;;;;10455787;28;20232;-68
2022/10/11 14:16:39;;;;;;;1.95;0.28;;;;;;;;;;10460301;28;20262;-68
2022/10/11 14:21:46;;;;;;;4.20;0.30;;;;;;;;;;10449073;28;20222;-68
2022/10/11 14:26:48;;;;;;;2.72;0.55;;;;;;;;;;10457758;28;20248;-67
2022/10/11 14:31:50;;;;;;;1.30;0.43;;;;;;;;;;10453342;28;20226;-67
2022/10/11 14:36:52;;;;;;;1.50;0.30;;;;;;;;;;10453385;28;20313;-70
2022/10/11 14:41:53;;;;;;;2.58;0.30;;;;;;;;;;10445308;28;20292;-70
2022/10/11 14:46:54;;;;;;;3.28;0.40;;;;;;;;;;10450397;28;20233;-68
2022/10/11 14:51:56;;;;;;;1.20;0.35;;;;;;;;;;10450398;28;20267;-68
2022/10/11 14:56:59;;;;;;;4.32;0.40;;;;;;;;;;10445871;28;20221;-67
2022/10/11 15:02:00;;;;;;;2.45;0.40;;;;;;;;;;10446883;28;20218;-67
2022/10/11 15:07:03;;;;;;;9.02;0.70;;;;;;;;;;10447720;28;20732;-66
2022/10/11 15:12:04;;;;;;;4.53;0.52;;;;;;;;;;10445825;28;20234;-67
2022/10/11 15:17:05;;;;;;;0.38;0.30;;;;;;;;;;10444614;28;20229;-67
2022/10/11 15:22:06;;;;;;;12.07;0.63;;;;;;;;;;10449244;28;20227;-69
2022/10/11 15:27:09;;;;;;;1.30;0.28;;;;;;;;;;10447695;28;20309;-67
2022/10/11 15:32:10;;;;;;;2.05;0.30;;;;;;;;;;10447233;28;20222;-66
2022/10/11 15:37:11;;;;;;;1.25;0.40;;;;;;;;;;10444763;28;20222;-66
2022/10/11 15:42:12;;;;;;;1.35;0.30;;;;;;;;;;10449335;28;20266;-67
2022/10/11 15:47:13;;;;;;;0.73;0.30;;;;;;;;;;10453482;28;20781;-67
2022/10/11 15:52:14;;;;;;;3.13;0.45;;;;;;;;;;10453420;28;20222;-66
2022/10/11 15:57:16;;;;;;;4.10;0.65;;;;;;;;;;10459411;28;20630;-68
2022/10/11 16:02:17;;;;;;;0.85;0.40;;;;;;;;;;10464305;28;20237;-67
2022/10/11 16:07:18;;;;;;;1.17;0.50;;;;;;;;;;10462686;28;20221;-66
2022/10/11 16:12:19;;;;;;;3.55;2.67;;;;;;;;;;10466453;28;20222;-66
2022/10/11 16:17:20;;;;;;;4.40;2.53;;;;;;;;;;10466385;28;20333;-67
2022/10/11 16:22:21;;;;;;;6.47;2.50;;;;;;;;;;10464227;28;20222;-65
2022/10/11 16:27:22;;;;;;;4.25;2.80;;;;;;;;;;10464553;28;20738;-65
2022/10/11 16:32:24;;;;;;;1.38;1.17;;;;;;;;;;10463890;28;20927;-67
2022/10/11 16:37:25;;;;;;;5.18;1.52;;;;;;;;;;10462353;28;20222;-67
2022/10/11 16:42:26;;;;;;;3.40;1.90;;;;;;;;;;10459860;28;20265;-67
2022/10/11 16:47:27;;;;;;;7.70;2.78;;;;;;;;;;10461062;28;20295;-67
2022/10/11 16:52:29;;;;;;;3.25;1.50;;;;;;;;;;10456928;28;20221;-67
2022/10/11 16:57:30;;;;;;;2.40;1.05;;;;;;;;;;10458552;28;20219;-67
2022/10/11 17:02:31;;;;;;;2.38;1.02;;;;;;;;;;10457979;28;20230;-67
2022/10/11 17:07:32;;;;;;;3.95;0.70;;;;;;;;;;10460532;28;20218;-68
2022/10/11 17:12:36;;;;;;;1.55;0.80;;;;;;;;;;10456684;28;20268;-67
2022/10/11 17:17:37;;;;;;;0.93;0.50;;;;;;;;;;10461289;28;20223;-67
2022/10/11 17:22:38;;;;;;;2.60;0.85;;;;;;;;;;10461829;28;20230;-66
2022/10/11 17:27:39;;;;;;;5.70;1.48;;;;;;;;;;10458716;28;20222;-67
2022/10/11 17:32:40;;;;;;;3.67;1.70;;;;;;;;;;10459832;28;20233;-66
2022/10/11 17:37:41;;;;;;;6.15;2.55;;;;;;;;;;10458999;28;20230;-66
2022/10/11 17:42:42;;;;;;;1.67;1.33;;;;;;;;;;10459514;28;20361;-66
2022/10/11 17:47:43;;;;;;;2.15;1.67;;;;;;;;;;10464107;28;20217;-67
2022/10/11 17:52:44;;;;;;;3.95;1.52;;;;;;;;;;10458199;28;20220;-67
2022/10/11 17:57:46;;;;;;;2.70;1.30;;;;;;;;;;10455439;28;20249;-67
2022/10/11 18:02:47;;;;;;;2.00;1.23;;;;;;;;;;10456582;28;20229;-67
2022/10/11 18:07:51;;;;;;;3.67;1.50;;;;;;;;;;10458042;28;20694;-67
2022/10/11 18:12:53;;;;;;;6.60;2.08;;;;;;;;;;10456209;28;20230;-67
2022/10/11 18:17:54;;;;;;;3.67;1.40;;;;;;;;;;10455792;28;20269;-69
2022/10/11 18:22:55;;;;;;;4.78;1.67;;;;;;;;;;10461063;28;20261;-66
2022/10/11 18:27:56;;;;;;;5.38;2.08;;;;;;;;;;10453205;28;20233;-66
2022/10/11 18:32:57;;;;;;;2.17;2.05;;;;;;;;;;10455864;28;20316;-69
2022/10/11 18:37:59;;;;;;;4.18;3.10;;;;;;;;;;10456422;28;20229;-68
2022/10/11 18:43:00;;;;;;;2.40;2.30;;;;;;;;;;10458138;28;20234;-71
2022/10/11 18:48:01;;;;;;;2.90;2.70;;;;;;;;;;10457980;28;20214;-70
2022/10/11 18:53:02;;;;;;;3.63;3.17;;;;;;;;;;10449258;28;20215;-72
2022/10/11 18:58:03;;;;;;;3.55;3.00;;;;;;;;;;10453196;28;20214;-71
2022/10/11 19:03:05;;;;;;;4.18;2.85;;;;;;;;;;10452853;28;20229;-68
2022/10/11 19:08:06;;;;;;;3.72;2.90;;;;;;;;;;10457373;28;20222;-69
2022/10/11 19:13:07;;;;;;;4.40;2.70;;;;;;;;;;10448503;28;20218;-72
2022/10/11 19:18:11;;;;;;;6.28;3.40;;;;;;;;;;10456823;28;20829;-74
2022/10/11 19:23:12;;;;;;;10.63;4.93;;;;;;;;;;10454096;28;20221;-70
2022/10/11 19:28:13;;;;;;;4.28;3.45;;;;;;;;;;10451757;28;20226;-71
2022/10/11 19:33:14;;;;;;;4.28;3.70;;;;;;;;;;10456079;28;20214;-69
2022/10/11 19:38:15;;;;;;;3.45;3.15;;;;;;;;;;10459884;28;20246;-70
2022/10/11 19:43:17;;;;;;;4.82;3.60;;;;;;;;;;10458370;28;20786;-69
2022/10/11 19:48:18;;;;;;;3.92;3.50;;;;;;;;;;10438094;28;21204;-69
2022/10/11 19:53:19;;;;;;;4.28;3.00;;;;;;;;;;10453550;28;20210;-69
2022/10/11 19:58:20;;;;;;;3.92;2.75;;;;;;;;;;10458092;28;20815;-69
2022/10/11 20:03:21;;;;;;;5.75;2.58;;;;;;;;;;10463252;28;20229;-70
2022/10/11 20:08:22;;;;;;;5.57;2.92;;;;;;;;;;10439586;28;20218;-70
2022/10/11 20:13:23;;;;;;;4.65;3.28;;;;;;;;;;10458006;28;20225;-70
2022/10/11 20:18:25;;;;;;;6.15;3.30;;;;;;;;;;10440757;28;20349;-70
2022/10/11 20:23:26;;;;;;;4.13;3.08;;;;;;;;;;10450714;28;20232;-69
2022/10/11 20:28:29;;;;;;;13.15;2.67;;;;;;;;;;10455668;28;20218;-69
2022/10/11 20:33:31;;;;;;;3.20;2.90;;;;;;;;;;10459718;28;20754;-69
2022/10/11 20:38:33;;;;;;;7.28;3.03;;;;;;;;;;10462742;28;20309;-70
2022/10/11 20:43:35;;;;;;;4.05;2.40;;;;;;;;;;10465799;28;20233;-69
2022/10/11 20:48:36;;;;;;;6.85;2.53;;;;;;;;;;10468963;28;20214;-70
2022/10/11 20:53:38;;;;;;;2.00;1.90;;;;;;;;;;10464909;28;20211;-70
2022/10/11 20:58:39;;;;;;;5.60;2.95;;;;;;;;;;10466358;28;20329;-70
2022/10/11 21:03:41;;;;;;;5.60;2.20;;;;;;;;;;10464517;28;20241;-69
2022/10/11 21:08:42;;;;;;;6.03;2.35;;;;;;;;;;10461774;28;20210;-70
2022/10/11 21:13:43;;;;;;;1.70;1.60;;;;;;;;;;10460528;28;20312;-69
2022/10/11 21:18:44;;;;;;;1.63;1.52;;;;;;;;;;10465376;28;20874;-70
2022/10/11 21:23:45;;;;;;;2.10;1.52;;;;;;;;;;10463102;28;21040;-70
2022/10/11 21:28:47;;;;;;;4.00;1.52;;;;;;;;;;10460755;28;20312;-70
2022/10/11 21:33:48;;;;;;;4.53;1.65;;;;;;;;;;10461607;28;20242;-70
2022/10/11 21:38:50;;;;;;;1.40;1.30;;;;;;;;;;10462535;28;20218;-69
2022/10/11 21:43:51;;;;;;;3.42;1.70;;;;;;;;;;10460047;28;20280;-69
2022/10/11 21:48:52;;;;;;;4.13;1.98;;;;;;;;;;10464006;28;20225;-69
2022/10/11 21:53:55;;;;;;;3.65;2.17;;;;;;;;;;10459937;28;20827;-70
2022/10/11 21:58:56;;;;;;;5.25;1.88;;;;;;;;;;10459733;28;20230;-70
2022/10/11 22:03:57;;;;;;;2.28;1.73;;;;;;;;;;10463845;28;20258;-70
2022/10/11 22:08:59;;;;;;;5.00;1.42;;;;;;;;;;10461873;28;20214;-70
2022/10/11 22:14:00;;;;;;;1.60;1.27;;;;;;;;;;10460478;28;20226;-70
2022/10/11 22:19:01;;;;;;;4.22;2.22;;;;;;;;;;10463905;28;20225;-70
2022/10/11 22:24:02;;;;;;;2.92;1.58;;;;;;;;;;10461968;28;20657;-69
2022/10/11 22:29:03;;;;;;;4.40;1.45;;;;;;;;;;10464633;28;20658;-69
2022/10/11 22:34:05;;;;;;;2.40;1.58;;;;;;;;;;10473149;28;20214;-70
2022/10/11 22:39:07;;;;;;;2.47;1.30;;;;;;;;;;10461161;28;20698;-70
2022/10/11 22:44:08;;;;;;;1.88;1.58;;;;;;;;;;10458230;28;20230;-70
2022/10/11 22:49:09;;;;;;;3.78;1.50;;;;;;;;;;10461358;28;20217;-70
2022/10/11 22:54:10;;;;;;;6.97;1.73;;;;;;;;;;10463691;28;20222;-70
2022/10/11 22:59:11;;;;;;;1.38;1.20;;;;;;;;;;10463723;28;20229;-69
2022/10/11 23:04:12;;;;;;;1.38;1.27;;;;;;;;;;10458236;28;20253;-70
2022/10/11 23:09:13;;;;;;;1.38;1.05;;;;;;;;;;10459474;28;20601;-70
2022/10/11 23:14:14;;;;;;;2.25;1.50;;;;;;;;;;10463065;28;20224;-69
2022/10/11 23:19:16;;;;;;;4.40;1.17;;;;;;;;;;10457342;28;21016;-69
2022/10/11 23:24:17;;;;;;;3.47;1.58;;;;;;;;;;10457281;28;20986;-69
2022/10/11 23:29:18;;;;;;;1.27;1.17;;;;;;;;;;10463245;28;20700;-70
2022/10/11 23:34:19;;;;;;;1.63;1.17;;;;;;;;;;10459138;28;20218;-70
2022/10/11 23:39:20;;;;;;;3.03;1.20;;;;;;;;;;10461998;28;21135;-70
2022/10/11 23:44:21;;;;;;;3.90;1.10;;;;;;;;;;10457515;28;20291;-70
2022/10/11 23:49:22;;;;;;;1.20;1.10;;;;;;;;;;10442928;28;20226;-70
2022/10/11 23:54:23;;;;;;;1.30;1.20;;;;;;;;;;10439102;28;20250;-70
2022/10/11 23:59:24;;;;;;;4.50;1.30;;;;;;;;;;10458286;28;20226;-70
